Terminal Aerodrome Forecast
Issued by NWS Pittsburgh, PA

Home | Current Version | Previous Version | Text Only | Print | Product List | Glossary On
Versions: 1 2 3 4 5 6 7 8 9 10 11 12 13 14 15 16 17 18 19 20 21 22 23 24 25
000
FTUS41 KPBZ 230300 AAA
TAFPIT
TAF AMD
KPIT 230306Z 2303/2406 11008KT P6SM BKN100
     FM230600 12006KT P6SM -SHRA OVC050
     FM231200 15008KT P6SM -SHRA BKN025
     FM231600 17010KT P6SM OVC040=

USA.gov is the U.S. government's official web portal to all federal, state and local government web resources and services.